Time;durP1;ratioP1;P1;durP2;ratioP2;P2;SDS_P1;SDS_P2;PMS_P1;PMS_P2;Temp;Humidity;BMP_temperature;BMP_pressure;BME280_temperature;BME280_humidity;BME280_pressure;Samples;Min_cycle;Max_cycle;Signal;HPM_P1;HPM_P2
2022/10/28 00:01:17;;;;;;;18.15;9.57;;;;;;;17.69;60.84;100942.34;4445006;32;33615;-62
2022/10/28 00:03:51;;;;;;;16.00;10.23;;;;;;;17.84;60.29;100938.31;4446229;32;33921;-63
2022/10/28 00:06:25;;;;;;;13.48;7.97;;;;;;;17.86;60.15;100941.75;4445007;32;33901;-63
2022/10/28 00:08:53;;;;;;;14.63;6.90;;;;;;;17.83;60.24;100935.75;4446564;32;34719;-64
2022/10/28 00:11:23;;;;;;;12.98;6.87;;;;;;;17.93;59.88;100942.09;4441230;32;34548;-63
2022/10/28 00:13:56;;;;;;;20.25;12.18;;;;;;;17.92;59.71;100938.53;4452360;32;34245;-63
2022/10/28 00:16:26;;;;;;;14.02;9.43;;;;;;;17.92;59.71;100933.09;4440666;32;33793;-64
2022/10/28 00:18:54;;;;;;;14.07;8.90;;;;;;;17.97;59.64;100940.81;4439202;32;36364;-65
2022/10/28 00:21:25;;;;;;;19.85;13.50;;;;;;;17.86;59.89;100933.62;4450437;32;35097;-64
2022/10/28 00:23:53;;;;;;;16.87;9.27;;;;;;;17.96;59.76;100936.41;4434845;32;32715;-63
2022/10/28 00:26:24;;;;;;;14.48;8.98;;;;;;;17.97;59.81;100937.25;4447146;32;34931;-63
2022/10/28 00:28:54;;;;;;;18.65;9.70;;;;;;;17.91;59.86;100931.41;4447404;32;32617;-63
2022/10/28 00:31:23;;;;;;;12.60;8.55;;;;;;;17.91;59.67;100933.22;4439457;32;32824;-63
2022/10/28 00:33:51;;;;;;;15.23;8.32;;;;;;;17.96;59.58;100940.97;4438328;32;33797;-63
2022/10/28 00:36:24;;;;;;;15.43;7.25;;;;;;;17.92;59.58;100941.22;4437077;32;33309;-62
2022/10/28 00:38:53;;;;;;;17.95;10.27;;;;;;;18.00;59.37;100943.25;4445768;32;34540;-62
2022/10/28 00:41:24;;;;;;;14.13;7.90;;;;;;;17.99;59.30;100938.84;4438197;32;123814;-63
2022/10/28 00:43:55;;;;;;;14.52;9.23;;;;;;;17.97;59.37;100935.41;4439218;32;34216;-64
2022/10/28 00:46:28;;;;;;;14.55;9.07;;;;;;;17.97;59.41;100942.69;4438315;32;33925;-64
2022/10/28 00:49:02;;;;;;;14.68;9.50;;;;;;;17.97;59.39;100938.13;4444733;32;32191;-65
2022/10/28 00:51:31;;;;;;;16.70;10.00;;;;;;;17.90;59.53;100940.50;4442607;32;33746;-64
2022/10/28 00:53:58;;;;;;;15.27;8.60;;;;;;;17.90;59.55;100935.09;4428770;32;32431;-65
2022/10/28 00:56:31;;;;;;;14.20;9.20;;;;;;;17.96;59.39;100936.41;4443539;32;33728;-62
2022/10/28 00:59:00;;;;;;;15.02;9.85;;;;;;;17.83;59.85;100931.19;4443023;32;32145;-63
2022/10/28 01:01:27;;;;;;;20.62;11.48;;;;;;;17.85;59.76;100934.63;4432453;32;33962;-62
2022/10/28 01:03:55;;;;;;;16.95;10.73;;;;;;;17.88;59.64;100936.19;4441217;32;34979;-63
2022/10/28 01:06:23;;;;;;;15.20;10.32;;;;;;;17.70;60.07;100930.50;4431197;32;35001;-63
2022/10/28 01:08:51;;;;;;;18.42;11.38;;;;;;;17.78;59.83;100927.16;4446198;32;33599;-63
2022/10/28 01:11:41;;;;;;;12.03;7.90;;;;;;;17.79;59.79;100927.03;4445651;32;34523;-64
2022/10/28 01:14:16;;;;;;;13.35;8.98;;;;;;;17.81;59.73;100927.75;4442074;32;34890;-62
2022/10/28 01:17:03;;;;;;;19.67;8.07;;;;;;;17.81;59.90;100927.75;4447965;32;33997;-62
2022/10/28 01:19:58;;;;;;;20.40;12.90;;;;;;;17.63;60.29;100930.19;4445346;32;32947;-62
2022/10/28 01:22:37;;;;;;;12.07;8.77;;;;;;;17.71;60.00;100924.09;4442680;32;32660;-62
2022/10/28 01:25:11;;;;;;;16.10;9.65;;;;;;;17.57;60.38;100927.12;4444404;32;33699;-62
2022/10/28 01:27:57;;;;;;;15.65;9.82;;;;;;;17.52;60.68;100926.66;4445166;32;33451;-62
2022/10/28 01:30:26;;;;;;;13.90;9.20;;;;;;;17.42;60.85;100916.59;4443075;32;33468;-65
2022/10/28 01:33:06;;;;;;;19.45;8.77;;;;;;;17.48;60.94;100922.50;4430757;32;33707;-61
2022/10/28 01:35:48;;;;;;;14.43;9.63;;;;;;;17.63;60.42;100921.19;4442551;32;33643;-65
2022/10/28 01:38:31;;;;;;;16.85;9.40;;;;;;;17.67;60.24;100915.37;4439901;32;34696;-62
2022/10/28 01:41:28;;;;;;;25.10;13.52;;;;;;;17.66;60.24;100916.38;4449505;32;32218;-62
2022/10/28 01:44:05;;;;;;;13.88;8.68;;;;;;;17.64;60.26;100914.78;4444291;32;33816;-62
2022/10/28 01:47:03;;;;;;;14.98;9.32;;;;;;;17.56;60.34;100911.87;4448013;32;33711;-62
2022/10/28 01:49:38;;;;;;;17.48;10.38;;;;;;;17.43;60.82;100907.53;4412001;32;33760;-64
2022/10/28 01:52:10;;;;;;;9.32;6.95;;;;;;;17.46;60.70;100909.09;4443288;32;33141;-62
2022/10/28 01:54:40;;;;;;;13.20;9.32;;;;;;;17.50;60.39;100912.41;4431208;32;32349;-63
2022/10/28 01:57:08;;;;;;;13.80;8.82;;;;;;;17.58;60.09;100907.19;4430764;32;34156;-62
2022/10/28 01:59:37;;;;;;;17.65;9.65;;;;;;;17.60;60.17;100918.75;4444797;32;33686;-61
2022/10/28 02:02:04;;;;;;;12.40;7.18;;;;;;;17.49;60.56;100914.25;4444540;32;32178;-61
2022/10/28 02:04:32;;;;;;;12.02;7.25;;;;;;;17.54;60.48;100917.44;4445801;32;32696;-59
2022/10/28 02:07:00;;;;;;;23.08;9.35;;;;;;;17.65;60.12;100911.94;4442975;32;33503;-62
2022/10/28 02:09:43;;;;;;;20.25;11.43;;;;;;;17.53;60.30;100912.13;4442318;32;33458;-61
2022/10/28 02:12:43;;;;;;;15.35;9.18;;;;;;;17.52;60.66;100919.38;4435430;32;35043;-63
2022/10/28 02:15:31;;;;;;;15.43;9.57;;;;;;;17.53;60.53;100904.87;4445557;32;33573;-63
2022/10/28 02:18:34;;;;;;;10.20;6.95;;;;;;;17.59;60.11;100906.19;4426754;32;34928;-61
2022/10/28 02:21:05;;;;;;;17.40;8.00;;;;;;;17.57;60.21;100908.19;4444251;32;34641;-62
2022/10/28 02:23:43;;;;;;;10.98;5.12;;;;;;;17.23;61.17;100913.75;4441857;32;34654;-63
2022/10/28 02:26:15;;;;;;;13.65;8.93;;;;;;;17.25;61.06;100908.22;4441883;32;34607;-60
2022/10/28 02:28:54;;;;;;;13.50;8.45;;;;;;;17.31;60.76;100910.41;4435904;32;33753;-60
2022/10/28 02:31:38;;;;;;;16.23;7.62;;;;;;;17.43;60.61;100901.22;4434163;32;32923;-61
2022/10/28 02:34:10;;;;;;;10.75;6.53;;;;;;;17.44;60.76;100906.53;4447306;32;33598;-61
2022/10/28 02:36:41;;;;;;;19.02;10.13;;;;;;;17.40;60.99;100912.34;4441964;32;35577;-61
2022/10/28 02:39:10;;;;;;;13.18;7.55;;;;;;;17.46;60.49;100912.69;4433402;32;35127;-60
2022/10/28 02:41:51;;;;;;;18.37;11.23;;;;;;;17.47;60.47;100913.53;4433975;32;32409;-64
2022/10/28 02:44:28;;;;;;;17.87;9.88;;;;;;;17.49;60.71;100914.25;4424187;32;33507;-60
2022/10/28 02:46:58;;;;;;;20.17;11.50;;;;;;;17.56;60.48;100914.56;4442379;32;33943;-60
2022/10/28 02:49:26;;;;;;;15.82;10.55;;;;;;;17.40;60.71;100907.78;4439730;32;33923;-62
2022/10/28 02:51:59;;;;;;;18.62;10.00;;;;;;;17.43;60.82;100912.94;4434357;32;34072;-61
2022/10/28 02:54:31;;;;;;;17.80;9.23;;;;;;;17.51;60.58;100908.72;4436449;32;32138;-60
2022/10/28 02:57:06;;;;;;;19.00;10.05;;;;;;;17.55;60.23;100899.34;4436661;32;32690;-63
2022/10/28 02:59:33;;;;;;;16.95;8.20;;;;;;;17.30;60.89;100896.00;4439023;32;32426;-61
2022/10/28 03:02:01;;;;;;;17.00;10.05;;;;;;;17.17;61.28;100895.31;4442055;32;33295;-61
2022/10/28 03:04:28;;;;;;;15.50;9.52;;;;;;;17.36;60.87;100891.91;4436497;32;33365;-62
2022/10/28 03:06:56;;;;;;;15.55;6.32;;;;;;;17.31;61.01;100894.19;4442113;32;32295;-61
2022/10/28 03:09:24;;;;;;;16.92;8.82;;;;;;;17.14;61.40;100888.34;4445045;32;34030;-63
2022/10/28 03:11:51;;;;;;;22.33;10.95;;;;;;;16.87;62.65;100896.06;4441259;32;33739;-63
2022/10/28 03:14:19;;;;;;;17.92;10.18;;;;;;;17.08;61.87;100904.22;4441654;32;34464;-63
2022/10/28 03:16:46;;;;;;;17.60;7.82;;;;;;;17.03;62.09;100901.91;4440316;32;33559;-61
2022/10/28 03:19:14;;;;;;;18.58;11.35;;;;;;;17.09;61.74;100895.97;4447023;32;33967;-63
2022/10/28 03:21:41;;;;;;;12.73;8.35;;;;;;;16.97;62.33;100905.97;4443595;32;34665;-62
2022/10/28 03:24:09;;;;;;;21.05;9.93;;;;;;;17.06;62.08;100906.19;4445904;32;33689;-63
2022/10/28 03:26:36;;;;;;;16.35;8.90;;;;;;;16.94;62.49;100908.94;4438454;32;32637;-61
2022/10/28 03:29:04;;;;;;;19.10;10.07;;;;;;;16.78;63.34;100905.78;4444939;32;34140;-62
2022/10/28 03:31:31;;;;;;;18.25;8.23;;;;;;;16.74;63.28;100912.41;4445197;32;34624;-62
2022/10/28 03:33:59;;;;;;;17.00;7.55;;;;;;;16.82;62.79;100919.91;4444722;32;33668;-61
2022/10/28 03:36:26;;;;;;;18.02;9.13;;;;;;;16.89;62.70;100910.31;4442028;32;33750;-61
2022/10/28 03:38:54;;;;;;;24.70;9.70;;;;;;;16.81;63.08;100905.53;4444165;32;35306;-62
2022/10/28 03:41:21;;;;;;;16.50;10.52;;;;;;;16.89;62.70;100897.66;4438173;32;32669;-63
2022/10/28 03:43:49;;;;;;;19.37;8.98;;;;;;;16.88;62.86;100906.72;4442194;32;32067;-62
2022/10/28 03:46:16;;;;;;;19.92;9.93;;;;;;;16.92;62.62;100901.94;4442771;32;33420;-62
2022/10/28 03:48:44;;;;;;;16.42;9.88;;;;;;;16.96;62.50;100904.25;4447829;32;34141;-62
2022/10/28 03:51:12;;;;;;;18.27;12.77;;;;;;;16.85;62.93;100906.97;4441766;32;33645;-63
2022/10/28 03:53:39;;;;;;;15.05;9.60;;;;;;;16.88;62.83;100903.16;4444319;32;33165;-62
2022/10/28 03:56:07;;;;;;;16.40;9.57;;;;;;;16.73;63.33;100899.88;4447877;32;33512;-63
2022/10/28 03:58:35;;;;;;;17.42;10.55;;;;;;;16.80;63.16;100905.66;4442701;32;34859;-61
2022/10/28 04:01:07;;;;;;;12.75;9.30;;;;;;;16.57;63.88;100900.28;4440475;32;33794;-62
2022/10/28 04:03:35;;;;;;;18.58;10.63;;;;;;;16.09;65.71;100899.69;4437282;32;33301;-63
2022/10/28 04:06:02;;;;;;;14.73;9.20;;;;;;;16.43;64.71;100901.37;4446036;32;32610;-62
2022/10/28 04:08:30;;;;;;;18.25;9.40;;;;;;;16.40;64.90;100900.75;4444634;32;35228;-63
2022/10/28 04:10:58;;;;;;;18.80;11.85;;;;;;;16.56;64.34;100886.88;4440616;32;32707;-61
2022/10/28 04:13:25;;;;;;;28.55;11.88;;;;;;;16.77;63.77;100888.69;4445970;32;33598;-63
2022/10/28 04:15:52;;;;;;;15.73;10.43;;;;;;;16.72;63.80;100895.44;4450263;32;33697;-61
2022/10/28 04:18:20;;;;;;;22.85;11.02;;;;;;;16.74;63.83;100893.47;4445821;32;34009;-63
2022/10/28 04:20:48;;;;;;;17.42;10.63;;;;;;;16.74;63.49;100888.91;4444957;32;35120;-64
2022/10/28 04:23:17;;;;;;;17.85;10.80;;;;;;;16.70;63.69;100886.59;4444078;32;34595;-64
2022/10/28 04:25:45;;;;;;;18.23;10.70;;;;;;;16.93;63.04;100892.84;4448725;32;33861;-62
2022/10/28 04:28:12;;;;;;;29.15;13.02;;;;;;;16.98;62.86;100886.06;4440241;32;34025;-63
2022/10/28 04:30:40;;;;;;;16.05;10.05;;;;;;;17.07;62.67;100878.16;4445529;32;33820;-61
2022/10/28 04:33:10;;;;;;;19.20;8.85;;;;;;;17.01;62.87;100879.53;4436384;32;34198;-65
2022/10/28 04:35:41;;;;;;;12.18;8.80;;;;;;;17.08;62.67;100874.44;4447051;32;33543;-64
2022/10/28 04:38:10;;;;;;;13.25;8.05;;;;;;;17.07;62.57;100870.91;4437573;32;34032;-62
2022/10/28 04:40:37;;;;;;;17.70;9.68;;;;;;;17.15;62.27;100871.13;4446379;32;33954;-64
2022/10/28 04:43:05;;;;;;;20.45;10.48;;;;;;;17.08;62.51;100869.94;4443024;32;33296;-64
2022/10/28 04:45:37;;;;;;;21.17;11.80;;;;;;;17.15;62.33;100864.84;4445258;32;34666;-62
2022/10/28 04:48:04;;;;;;;24.45;10.35;;;;;;;17.21;62.05;100873.31;4436340;32;34986;-65
2022/10/28 04:50:32;;;;;;;22.85;12.30;;;;;;;17.15;62.36;100857.59;4443801;32;33986;-61
2022/10/28 04:52:59;;;;;;;17.10;8.57;;;;;;;17.15;62.48;100864.84;4443955;32;33383;-62
2022/10/28 04:55:27;;;;;;;20.62;8.48;;;;;;;17.26;62.02;100858.53;4444576;32;34749;-61
2022/10/28 04:57:56;;;;;;;29.50;10.60;;;;;;;17.18;62.21;100856.47;4441754;32;33534;-62
2022/10/28 05:00:24;;;;;;;20.15;10.60;;;;;;;16.98;62.76;100850.91;4444484;32;33850;-64
2022/10/28 05:02:52;;;;;;;26.23;10.32;;;;;;;17.00;62.70;100853.47;4442101;32;32345;-62
2022/10/28 05:05:20;;;;;;;20.62;7.93;;;;;;;16.91;63.13;100862.34;4442811;32;33529;-62
2022/10/28 05:07:48;;;;;;;19.10;12.23;;;;;;;17.07;62.59;100857.37;4444592;32;33716;-62
2022/10/28 05:10:16;;;;;;;18.70;9.43;;;;;;;16.93;62.87;100858.53;4443260;32;32600;-63
2022/10/28 05:12:44;;;;;;;17.52;9.43;;;;;;;17.15;62.33;100864.84;4442405;32;33201;-62
2022/10/28 05:15:13;;;;;;;32.65;9.27;;;;;;;17.15;62.48;100856.75;4439978;32;34099;-62
2022/10/28 05:17:45;;;;;;;16.40;10.65;;;;;;;17.00;63.09;100864.28;4442337;32;35281;-63
2022/10/28 05:20:15;;;;;;;13.27;7.90;;;;;;;17.10;62.69;100864.37;4451087;32;33868;-61
2022/10/28 05:22:46;;;;;;;15.52;9.32;;;;;;;16.98;63.11;100869.84;4446645;32;33400;-62
2022/10/28 05:25:15;;;;;;;14.82;8.82;;;;;;;16.82;63.60;100868.53;4445723;32;32067;-62
2022/10/28 05:27:43;;;;;;;19.52;10.00;;;;;;;17.05;63.03;100869.34;4445840;32;34227;-61
2022/10/28 05:30:11;;;;;;;14.63;9.82;;;;;;;17.09;62.75;100868.06;4450468;32;33625;-64
2022/10/28 05:32:39;;;;;;;12.25;7.20;;;;;;;17.13;62.67;100880.34;4450088;32;33147;-63
2022/10/28 05:35:07;;;;;;;16.55;8.00;;;;;;;17.19;62.48;100875.28;4445984;32;35087;-65
2022/10/28 05:37:35;;;;;;;20.65;9.15;;;;;;;17.26;62.08;100880.16;4441601;32;32560;-64
2022/10/28 05:40:03;;;;;;;18.90;10.55;;;;;;;17.19;62.35;100883.38;4445846;32;33369;-63
2022/10/28 05:42:31;;;;;;;19.40;9.38;;;;;;;17.26;62.11;100877.47;4446021;32;33130;-65
2022/10/28 05:44:58;;;;;;;15.57;9.38;;;;;;;17.16;62.46;100877.37;4443071;32;35199;-63
2022/10/28 05:47:26;;;;;;;13.00;8.90;;;;;;;17.13;62.81;100881.19;4441084;32;33675;-67
2022/10/28 05:49:53;;;;;;;17.40;9.13;;;;;;;17.18;62.91;100886.25;4430129;32;34164;-65
2022/10/28 05:52:21;;;;;;;16.73;9.60;;;;;;;17.26;62.67;100891.84;4444183;32;31942;-63
2022/10/28 05:54:48;;;;;;;19.50;11.50;;;;;;;17.13;63.07;100893.88;4443044;32;33611;-65
2022/10/28 05:57:16;;;;;;;15.10;9.02;;;;;;;17.02;63.25;100888.53;4444659;32;34165;-63
2022/10/28 05:59:44;;;;;;;14.73;8.23;;;;;;;17.09;62.92;100892.41;4446449;32;34972;-62
2022/10/28 06:02:13;;;;;;;15.73;7.55;;;;;;;17.11;62.70;100899.44;4434026;32;32901;-65
2022/10/28 06:04:41;;;;;;;13.48;6.28;;;;;;;17.17;62.56;100898.91;4449777;32;34106;-63
2022/10/28 06:07:09;;;;;;;17.37;9.30;;;;;;;17.15;62.66;100902.72;4448067;32;34021;-63
2022/10/28 06:09:36;;;;;;;14.20;7.70;;;;;;;17.11;62.85;100906.66;4441809;32;33675;-63
2022/10/28 06:12:05;;;;;;;12.30;7.32;;;;;;;17.09;63.14;100908.66;4435905;32;34634;-62
2022/10/28 06:14:33;;;;;;;18.77;10.57;;;;;;;17.13;62.79;100904.69;4446742;32;33639;-64
2022/10/28 06:17:00;;;;;;;12.00;6.50;;;;;;;17.00;63.17;100903.00;4449473;32;34179;-67
2022/10/28 06:19:28;;;;;;;12.68;7.00;;;;;;;17.16;62.85;100901.72;4448149;32;33925;-64
2022/10/28 06:21:55;;;;;;;12.57;7.30;;;;;;;17.05;63.04;100902.63;4448537;32;33435;-63
2022/10/28 06:24:23;;;;;;;16.85;6.03;;;;;;;17.07;63.01;100902.50;4439997;32;32672;-63
2022/10/28 06:26:51;;;;;;;11.77;6.43;;;;;;;16.91;63.61;100903.78;4441156;32;33895;-63
2022/10/28 06:29:19;;;;;;;20.08;9.88;;;;;;;17.06;62.89;100904.34;4447504;32;33659;-63
2022/10/28 06:31:46;;;;;;;14.27;6.22;;;;;;;17.07;63.10;100908.75;4442042;32;34484;-62
2022/10/28 06:34:14;;;;;;;9.95;6.85;;;;;;;17.04;63.26;100903.59;4445302;32;33641;-62
2022/10/28 06:36:42;;;;;;;13.27;7.85;;;;;;;17.19;62.62;100910.44;4444830;32;34967;-62
2022/10/28 06:39:09;;;;;;;15.55;7.30;;;;;;;17.16;62.77;100908.00;4442708;32;34273;-61
2022/10/28 06:41:37;;;;;;;10.93;5.37;;;;;;;17.19;62.43;100902.31;4439030;32;34765;-62
2022/10/28 06:44:04;;;;;;;19.00;9.10;;;;;;;16.92;63.57;100908.22;4441105;32;33703;-62
2022/10/28 06:46:32;;;;;;;8.63;5.65;;;;;;;17.18;62.65;100913.28;4436680;32;34971;-63
2022/10/28 06:49:03;;;;;;;10.93;5.57;;;;;;;17.20;62.75;100917.56;4448990;32;34627;-65
2022/10/28 06:51:31;;;;;;;23.77;7.28;;;;;;;17.19;62.61;100915.00;4444901;32;33128;-66
2022/10/28 06:53:58;;;;;;;8.88;4.18;;;;;;;16.85;63.50;100916.94;4447463;32;33708;-62
2022/10/28 06:56:26;;;;;;;17.80;8.38;;;;;;;17.09;62.75;100923.03;4445075;32;32483;-63
2022/10/28 06:58:54;;;;;;;6.68;4.80;;;;;;;17.15;62.71;100916.25;4446788;32;33926;-63
2022/10/28 07:01:21;;;;;;;9.90;5.90;;;;;;;16.94;63.35;100930.56;4442604;32;33429;-63
2022/10/28 07:03:49;;;;;;;13.40;7.20;;;;;;;17.11;62.84;100925.59;4447601;32;33741;-62
2022/10/28 07:06:16;;;;;;;13.25;6.90;;;;;;;17.15;62.41;100930.62;4443189;32;33958;-61
2022/10/28 07:08:44;;;;;;;22.62;7.78;;;;;;;16.98;63.05;100931.16;4445336;32;34694;-64
2022/10/28 07:11:12;;;;;;;20.17;8.63;;;;;;;17.02;63.04;100940.75;4439486;32;33283;-63
2022/10/28 07:13:39;;;;;;;13.00;6.72;;;;;;;16.84;63.70;100943.13;4441874;32;33314;-62
2022/10/28 07:16:10;;;;;;;12.70;6.53;;;;;;;16.84;63.89;100937.72;4443176;32;34002;-64
2022/10/28 07:18:38;;;;;;;13.50;7.20;;;;;;;16.85;63.76;100936.72;4445327;32;33418;-62
2022/10/28 07:21:05;;;;;;;16.58;6.20;;;;;;;16.95;63.30;100936.81;4445328;32;34447;-64
2022/10/28 07:23:33;;;;;;;10.20;6.07;;;;;;;16.93;63.41;100939.66;4444350;32;33707;-62
2022/10/28 07:26:00;;;;;;;9.55;6.12;;;;;;;17.06;63.03;100935.94;4444187;32;34214;-63
2022/10/28 07:28:28;;;;;;;17.65;5.57;;;;;;;17.01;63.18;100922.78;4444650;32;34002;-63
2022/10/28 07:31:00;;;;;;;10.43;5.40;;;;;;;16.96;63.31;100925.91;4447879;32;34402;-61
2022/10/28 07:33:28;;;;;;;12.65;6.05;;;;;;;17.05;63.10;100931.53;4448716;32;33746;-62
2022/10/28 07:35:55;;;;;;;14.35;5.28;;;;;;;17.15;62.61;100924.38;4447588;32;33705;-62
2022/10/28 07:38:23;;;;;;;13.73;8.70;;;;;;;17.05;63.10;100923.44;4440692;32;33377;-63
2022/10/28 07:40:50;;;;;;;14.95;7.53;;;;;;;16.95;63.50;100945.81;4447669;32;32180;-62
2022/10/28 07:43:18;;;;;;;9.77;5.62;;;;;;;17.16;62.85;100945.00;4444017;32;34528;-64
2022/10/28 07:45:45;;;;;;;15.60;7.82;;;;;;;17.12;62.82;100944.41;4435042;32;35166;-63
2022/10/28 07:48:13;;;;;;;9.38;6.93;;;;;;;17.14;62.56;100946.97;4445682;32;33711;-62
2022/10/28 07:50:40;;;;;;;14.60;7.30;;;;;;;16.89;63.36;100949.03;4439885;32;36262;-62
2022/10/28 07:53:08;;;;;;;16.10;5.32;;;;;;;17.05;62.68;100945.91;4444725;32;33778;-63
2022/10/28 07:55:36;;;;;;;13.52;8.00;;;;;;;16.72;63.87;100944.94;4445867;32;35238;-63
2022/10/28 07:58:03;;;;;;;6.47;4.60;;;;;;;16.98;63.03;100945.56;4445397;32;34636;-62
2022/10/28 08:00:31;;;;;;;9.70;5.53;;;;;;;16.93;63.11;100944.22;4442949;32;32194;-62
2022/10/28 08:03:01;;;;;;;8.98;4.40;;;;;;;17.16;62.44;100945.00;4440566;32;33881;-64
2022/10/28 08:05:28;;;;;;;14.25;6.43;;;;;;;16.95;63.02;100943.13;4446330;32;33883;-63
2022/10/28 08:07:56;;;;;;;6.53;3.92;;;;;;;17.09;62.77;100941.97;4444761;32;33834;-63
2022/10/28 08:10:25;;;;;;;7.97;5.53;;;;;;;16.99;63.16;100943.72;4439181;32;33267;-63
2022/10/28 08:12:55;;;;;;;14.18;6.35;;;;;;;17.17;62.70;100947.59;4444300;32;33942;-62
2022/10/28 08:15:23;;;;;;;7.03;5.60;;;;;;;17.15;62.96;100929.78;4448656;32;34121;-64
2022/10/28 08:17:51;;;;;;;8.88;4.62;;;;;;;16.95;63.65;100928.72;4448878;32;35032;-62
2022/10/28 08:20:19;;;;;;;12.02;5.55;;;;;;;17.06;63.38;100922.44;4449704;32;33374;-63
2022/10/28 08:22:47;;;;;;;11.75;5.55;;;;;;;16.59;64.80;100921.75;4447532;32;33896;-62
2022/10/28 08:25:15;;;;;;;11.88;5.55;;;;;;;16.55;64.83;100923.84;4450758;32;33070;-62
2022/10/28 08:27:42;;;;;;;11.00;5.57;;;;;;;16.76;64.03;100926.69;4445671;32;35054;-63
2022/10/28 08:30:11;;;;;;;11.20;6.35;;;;;;;17.00;63.23;100921.09;4445520;32;34344;-62
2022/10/28 08:32:38;;;;;;;7.82;5.45;;;;;;;16.90;63.58;100912.88;4444012;32;33852;-64
2022/10/28 08:35:06;;;;;;;8.48;5.45;;;;;;;16.75;64.37;100933.06;4446265;32;35213;-62
2022/10/28 08:37:34;;;;;;;6.28;3.75;;;;;;;16.79;64.11;100934.56;4446875;32;34893;-62
2022/10/28 08:40:01;;;;;;;10.07;4.90;;;;;;;16.96;63.80;100941.25;4443143;32;33521;-63
2022/10/28 08:42:41;;;;;;;10.13;4.68;;;;;;;17.08;62.64;100936.66;4448530;32;33946;-62
2022/10/28 08:45:20;;;;;;;9.15;4.07;;;;;;;16.86;63.13;100943.88;4444494;32;32878;-64
2022/10/28 08:47:59;;;;;;;8.77;3.95;;;;;;;16.74;63.91;100948.41;4434419;32;32648;-64
2022/10/28 08:50:30;;;;;;;13.55;4.12;;;;;;;16.83;63.54;100949.53;4435376;32;31997;-65
2022/10/28 08:53:34;;;;;;;10.05;5.37;;;;;;;16.80;63.58;100949.78;4444474;32;33946;-62
2022/10/28 08:56:09;;;;;;;16.92;6.35;;;;;;;16.99;62.89;100949.97;4445326;32;34517;-63
2022/10/28 08:58:37;;;;;;;7.25;4.25;;;;;;;17.09;62.65;100943.81;4435631;32;32336;-64
2022/10/28 09:01:09;;;;;;;10.32;6.37;;;;;;;16.78;63.34;100951.75;4443418;32;34580;-62
2022/10/28 09:03:39;;;;;;;18.10;8.23;;;;;;;16.89;63.08;100956.28;4434183;32;35082;-65
2022/10/28 09:06:08;;;;;;;10.32;5.37;;;;;;;16.87;63.44;100958.25;4429575;32;34243;-63
2022/10/28 09:08:39;;;;;;;10.63;6.20;;;;;;;16.92;63.15;100958.75;4419630;32;33649;-64
2022/10/28 09:11:42;;;;;;;10.18;5.82;;;;;;;16.51;64.31;100963.78;4441668;32;32391;-63
2022/10/28 09:14:15;;;;;;;9.13;5.28;;;;;;;16.57;64.70;100961.56;4442786;32;33831;-63
2022/10/28 09:16:46;;;;;;;12.70;5.65;;;;;;;16.90;63.66;100958.84;4450508;32;33967;-63
2022/10/28 09:19:33;;;;;;;12.75;4.82;;;;;;;17.00;63.17;100954.41;4450463;32;35080;-63
2022/10/28 09:22:23;;;;;;;5.53;4.28;;;;;;;17.04;63.45;100959.56;4433407;32;32319;-63
2022/10/28 09:24:53;;;;;;;10.10;5.05;;;;;;;17.17;62.85;100950.31;4439300;32;33899;-63
2022/10/28 09:27:45;;;;;;;9.45;5.03;;;;;;;16.78;63.55;100949.03;4443963;32;33844;-64
2022/10/28 09:30:46;;;;;;;12.88;5.22;;;;;;;17.04;62.86;100948.72;4443672;32;33677;-65
2022/10/28 09:33:34;;;;;;;9.93;4.30;;;;;;;16.97;63.00;100957.34;4450114;32;33569;-63
2022/10/28 09:36:09;;;;;;;7.47;4.53;;;;;;;16.82;63.22;100960.44;4448280;32;34124;-64
2022/10/28 09:38:37;;;;;;;8.75;4.80;;;;;;;17.01;62.35;100955.25;4435782;32;35150;-65
2022/10/28 09:41:21;;;;;;;12.30;5.43;;;;;;;16.73;63.25;100948.53;4450563;32;33803;-66
2022/10/28 09:43:58;;;;;;;9.53;3.40;;;;;;;16.49;64.21;100954.91;4448017;32;34589;-65
2022/10/28 09:46:27;;;;;;;12.18;6.03;;;;;;;16.85;62.99;100942.13;4432647;32;34879;-64
2022/10/28 09:49:03;;;;;;;11.45;6.25;;;;;;;16.94;62.92;100935.13;4448276;32;34196;-64
2022/10/28 09:51:44;;;;;;;17.35;10.00;;;;;;;17.04;62.48;100929.81;4453912;32;35489;-64
2022/10/28 09:54:13;;;;;;;7.85;4.93;;;;;;;16.70;63.34;100951.50;4446229;32;33510;-64
2022/10/28 09:56:40;;;;;;;6.55;4.40;;;;;;;16.81;63.08;100950.62;4439851;32;33623;-65
2022/10/28 09:59:12;;;;;;;14.93;8.48;;;;;;;16.35;64.69;100959.72;4442204;32;33471;-65
2022/10/28 10:01:42;;;;;;;9.30;6.07;;;;;;;16.36;64.80;100958.75;4440180;32;34256;-65
2022/10/28 10:04:19;;;;;;;9.55;4.50;;;;;;;16.61;63.84;100953.09;4449360;32;33726;-63
2022/10/28 10:06:53;;;;;;;11.75;5.40;;;;;;;16.32;64.63;100955.44;4440182;32;34074;-63
2022/10/28 10:09:29;;;;;;;5.37;2.85;;;;;;;16.58;64.15;100958.72;4446962;32;34081;-63
2022/10/28 10:12:08;;;;;;;10.05;6.35;;;;;;;16.72;63.59;100946.78;4449328;32;34054;-65
2022/10/28 10:14:39;;;;;;;5.50;4.05;;;;;;;16.89;62.87;100940.06;4426313;32;34297;-63
2022/10/28 10:17:24;;;;;;;9.43;5.47;;;;;;;16.90;63.09;100941.78;4448758;32;34625;-62
2022/10/28 10:20:14;;;;;;;7.43;3.50;;;;;;;16.74;63.42;100945.69;4449592;32;33926;-66
2022/10/28 10:22:43;;;;;;;10.88;4.93;;;;;;;16.62;63.08;100951.25;4443689;32;32210;-64
2022/10/28 10:25:17;;;;;;;5.10;4.37;;;;;;;16.26;64.30;100951.38;4445214;32;33525;-62
2022/10/28 10:28:04;;;;;;;5.30;4.68;;;;;;;16.25;64.37;100957.75;4448530;32;33677;-63
2022/10/28 10:30:36;;;;;;;23.45;5.57;;;;;;;16.31;64.18;100953.72;4446438;32;33878;-62
2022/10/28 10:33:04;;;;;;;5.95;3.62;;;;;;;16.34;64.35;100956.19;4442159;32;33849;-63
2022/10/28 10:35:34;;;;;;;7.43;3.45;;;;;;;16.28;64.42;100956.66;4449026;32;33280;-63
2022/10/28 10:38:04;;;;;;;7.43;3.53;;;;;;;16.35;64.47;100943.53;4436847;32;35387;-63
2022/10/28 10:40:49;;;;;;;10.45;4.87;;;;;;;16.47;63.96;100940.69;4445273;32;33836;-62
2022/10/28 10:43:17;;;;;;;7.80;3.87;;;;;;;16.44;64.38;100931.97;4439661;32;35036;-64
2022/10/28 10:45:59;;;;;;;7.87;4.95;;;;;;;16.58;63.96;100944.38;4448675;32;33333;-64
2022/10/28 10:48:36;;;;;;;6.53;4.50;;;;;;;16.67;63.63;100939.06;4438141;32;34155;-63
2022/10/28 10:51:24;;;;;;;5.75;4.43;;;;;;;16.41;64.06;100938.47;4450872;32;35251;-64
2022/10/28 10:53:55;;;;;;;6.95;3.62;;;;;;;16.73;63.24;100937.72;4447523;32;32212;-65
2022/10/28 10:56:28;;;;;;;8.57;5.60;;;;;;;16.77;63.21;100933.81;4436958;32;33677;-63
2022/10/28 10:59:01;;;;;;;7.65;3.33;;;;;;;16.94;62.69;100927.00;4437526;32;32244;-65
2022/10/28 11:01:36;;;;;;;5.35;3.08;;;;;;;16.99;62.44;100933.75;4450763;32;33741;-63
2022/10/28 11:04:04;;;;;;;;;;;;;;;16.99;62.19;100932.91;4439829;32;33724;-63
2022/10/28 11:06:35;;;;;;;15.02;6.22;;;;;;;16.72;62.77;100933.28;4448567;32;34468;-63
2022/10/28 11:09:06;;;;;;;5.85;3.85;;;;;;;16.90;62.49;100922.84;4444419;32;33711;-63
2022/10/28 11:11:38;;;;;;;7.62;3.87;;;;;;;16.47;63.81;100929.88;4450454;32;35144;-63
2022/10/28 11:14:08;;;;;;;10.63;6.53;;;;;;;16.41;64.05;100933.06;4446611;32;34943;-63
2022/10/28 11:16:46;;;;;;;12.45;5.72;;;;;;;16.25;64.48;100929.88;4448714;32;32543;-64
2022/10/28 11:19:35;;;;;;;6.70;5.00;;;;;;;16.58;63.83;100930.84;4449890;32;35156;-64
2022/10/28 11:22:41;;;;;;;7.35;4.90;;;;;;;16.73;63.52;100930.47;4433874;32;32875;-65
2022/10/28 11:25:18;;;;;;;7.75;5.07;;;;;;;16.38;64.71;100935.16;4435351;32;32168;-62
2022/10/28 11:28:05;;;;;;;10.05;5.78;;;;;;;16.50;64.27;100931.44;4440410;32;32202;-64
2022/10/28 11:30:46;;;;;;;12.15;5.72;;;;;;;16.80;63.20;100930.00;4445064;32;33620;-63
2022/10/28 11:33:17;;;;;;;11.73;3.97;;;;;;;16.71;63.59;100928.87;4431139;32;32570;-67
2022/10/28 11:36:23;;;;;;;5.87;3.15;;;;;;;16.69;63.70;100933.53;4444264;32;35007;-65
2022/10/28 11:38:55;;;;;;;10.73;5.45;;;;;;;16.76;63.40;100930.25;4440054;32;33230;-63